• Join FlightAware (Why Join?)
  • Login
  • US Flag 
01:51AM EDT


 

Airport Tracker/Info


-or-


 

Live Flight TrackerFlight Track Log ✈ AAL1326 ✈ 31-Jan-2014 ✈ KTUL - KORD

Flight Track Log - Related Links

Times and Time Zones

All times are in EST time to prevent confusion due to time zone crossing. See the AAL1326 flight status page for this flight to view local times or setup timezone preferences in your user account.

Time Position Orientation Groundspeed Altitude Reporting Facility
EST Latitude Longitude Course Direction KTS MPH feet Rate Location/Type
08:44AM 36.1953 -95.8633 60° Northeast 168 193 1,600  Level Kansas City Center
08:45AM 36.2208 -95.8017 63° Northeast 257 296 3,200 2,340 Climbing Kansas City Center
08:46AM 36.3801 -95.4582 64° Northeast  Level FlightAware Approximate
08:46AM 36.2686 -95.7258 52° Northeast 271 312 6,500  Level Kansas City Center
08:47AM 36.4493 -95.3181 58° Northeast  Level FlightAware Approximate
08:47AM 36.3114 -95.6306 61° Northeast 314 361 9,400  Level Kansas City Center
08:48AM 36.5121 -95.1758 58° Northeast  Level FlightAware Approximate
08:48AM 36.3614 -95.5272 59° Northeast 346 398 11,700  Level Kansas City Center
08:49AM 36.5793 -95.0339 60° Northeast  Level FlightAware Approximate
08:49AM 36.4144 -95.4114 60° Northeast 379 436 14,700  Level Kansas City Center
08:50AM 36.4719 -95.2956 58° Northeast 391 450 17,400 2,340 Climbing Kansas City Center
08:51AM 36.5297 -95.1678 61° Northeast 418 481 19,600 2,160 Climbing Kansas City Center
08:52AM 36.6008 -95.0150 60° Northeast 442 509 22,000 2,280 Climbing Kansas City Center
08:53AM 36.6650 -94.8756 60° Northeast 453 521 24,300 1,560 Climbing Kansas City Center
08:59AM 37.0891 -93.9392 60° Northeast 546 628 33,100 1,440 Climbing FlightAware ADS-B (KMKE)
08:59AM 37.1326 -93.8406 61° Northeast 546 628 33,900 1,080 Climbing FlightAware ADS-B (KMKE)
09:00AM 37.2051 -93.6797 60° Northeast 556 640 34,900 960 Climbing FlightAware ADS-B (KMKE)
09:01AM 37.2476 -93.5838 61° Northeast 559 643 35,400 1,200 Climbing FlightAware ADS-B (KMKE)
09:02AM 37.2990 -93.4651 61° Northeast 557 641 36,400 1,020 Climbing FlightAware ADS-B (KMKE)
09:02AM 37.3396 -93.3754 60° Northeast 551 634 36,700 660 Climbing FlightAware ADS-B (KMKE)
09:02AM 37.3743 -93.3224 50° Northeast 532 612 37,000 240 Climbing FlightAware ADS-B (KMKE)
09:03AM 37.4720 -93.2259 38° Northeast 520 598 37,000  Level FlightAware ADS-B (KMKE)
09:04AM 37.5450 -93.1619 38° Northeast 523 602 37,000  Level Kansas City Center
09:05AM 37.6614 -93.0542 36° Northeast 518 596 37,000  Level Kansas City Center
09:06AM 37.7786 -92.9425 37° Northeast 521 600 37,000  Level Kansas City Center
09:07AM 37.8961 -92.8325 36° Northeast 520 598 37,000  Level Kansas City Center
09:08AM 38.0006 -92.7347 36° Northeast 519 597 37,000  Level Kansas City Center
09:09AM 38.1392 -92.6039 37° Northeast 518 596 37,000  Level Kansas City Center
09:10AM 38.2514 -92.4997 36° Northeast 520 598 37,000  Level Kansas City Center
09:11AM 38.3683 -92.3878 37° Northeast 518 596 37,000  Level Kansas City Center
09:12AM 38.4842 -92.2764 37° Northeast 516 594 37,000  Level Kansas City Center
09:13AM 38.6014 -92.1631 37° Northeast 521 600 37,000  Level Kansas City Center
09:14AM 38.7192 -92.0519 36° Northeast 522 601 37,000  Level Kansas City Center
09:15AM 38.8378 -91.9386 37° Northeast 524 603 37,000  Level Kansas City Center
09:16AM 38.9572 -91.8225 37° Northeast 530 610 37,000  Level Kansas City Center
09:17AM 39.0647 -91.6856 45° Northeast 541 623 37,000  Level Kansas City Center
09:18AM 39.1675 -91.5244 51° Northeast 579 666 37,000  Level Kansas City Center
09:19AM 39.2644 -91.3719 51° Northeast 568 654 37,000  Level Kansas City Center
09:20AM 39.3625 -91.2169 51° Northeast 561 646 37,000  Level Kansas City Center
09:21AM 39.4592 -91.0628 51° Northeast 555 639 37,000  Level Kansas City Center
09:22AM 39.5750 -90.8794 51° Northeast 549 632 37,000  Level Kansas City Center
09:23AM 39.6714 -90.7264 51° Northeast 547 629 37,000 -300 Level Kansas City Center
09:29AM 39.6821 -90.7070 51° Northeast 550 633 35,000 -600 Descending FlightAware ADS-B (KORD)
09:30AM 40.3911 -89.7711 51° Northeast 538 619 33,200 -2,220 Descending Chicago Center
09:36AM 41.0236 -89.0295 51° Northeast 489 563 20,400 -2,280 Descending FlightAware ADS-B (KORD)
09:37AM 41.0795 -88.9627 42° Northeast 478 550 19,300 -2,040 Descending FlightAware ADS-B (KMDW)
09:37AM 41.1384 -88.8916 42° Northeast 459 528 18,100 -2,400 Descending FlightAware ADS-B (KORD)
09:38AM 41.2029 -88.8156 42° Northeast 435 501 16,100 -2,940 Descending FlightAware ADS-B (KMDW)
09:38AM 41.2477 -88.7617 42° Northeast 425 489 14,500 -2,580 Descending FlightAware ADS-B (KORD)
09:39AM 41.3108 -88.6842 43° Northeast 391 450 12,900 -2,040 Descending FlightAware ADS-B (KORD)
09:40AM 41.3505 -88.6364 42° Northeast 372 428 11,900 -1,860 Descending FlightAware ADS-B (KORD)
09:40AM 41.3954 -88.5828 42° Northeast 365 420 10,900 -840 Descending FlightAware ADS-B (KMDW)
09:41AM 41.4463 -88.5227 42° Northeast 360 414 10,900  Level FlightAware ADS-B (KORD)
09:41AM 41.4835 -88.4784 42° Northeast 362 417 10,900  Level FlightAware ADS-B (KORD)
09:42AM 41.5289 -88.4241 42° Northeast 362 417 10,900  Level FlightAware ADS-B (KORD)
09:43AM 41.5720 -88.3725 42° Northeast 360 414 10,900  Level FlightAware ADS-B (KORD)
09:43AM 41.6196 -88.3160 42° Northeast 363 418 10,900  Level FlightAware ADS-B (KMDW)
09:44AM 41.6571 -88.2713 42° Northeast 365 420 10,900  Level FlightAware ADS-B (KPWK)
09:44AM 41.7033 -88.2162 42° Northeast 363 418 10,900 -180 Level FlightAware ADS-B (KPWK)
09:45AM 41.7445 -88.1672 42° Northeast 347 399 10,700 -480 Descending FlightAware ADS-B (KORD)
09:45AM 41.7779 -88.1269 42° Northeast 322 371 10,400 -780 Descending FlightAware ADS-B (KORD)
09:46AM 41.8076 -88.0910 42° Northeast 309 356 10,000 -1,080 Descending FlightAware ADS-B (KORD)
09:46AM 41.8324 -88.0586 44° Northeast 308 354 9,500 -1,260 Descending FlightAware ADS-B (KMDW)
09:47AM 41.8512 -88.0334 45° Northeast 302 348 9,100 -900 Descending FlightAware ADS-B (KMDW)
09:47AM 41.8671 -88.0120 45° Northeast 299 344 9,000 -600 Descending FlightAware ADS-B (KPWK)
09:47AM 41.8786 -87.9889 56° Northeast 288 331 8,800 -600 Descending FlightAware ADS-B (KORD)
09:47AM 41.8786 -87.9889 56° Northeast 282 325 8,700 -540 Descending FlightAware ADS-B (KORD)
09:48AM 41.8851 -87.9056 84° East 264 304 8,400 -960 Descending FlightAware ADS-B (KMDW)
09:48AM 41.8848 -87.8613 90° East 259 298 7,800 -1,440 Descending FlightAware ADS-B (KORD)
09:49AM 41.8847 -87.8377 90° East 257 296 7,400 -1,560 Descending FlightAware ADS-B (KORD)
09:49AM 41.8847 -87.8128 90° East 258 297 7,000 -1,440 Descending FlightAware ADS-B (KORD)
09:49AM 41.8846 -87.7912 90° East 255 293 6,700 -1,260 Descending FlightAware ADS-B (KORD)
09:50AM 41.8840 -87.7598 91° East 247 284 6,200 -1,200 Descending FlightAware ADS-B (KMDW)
09:50AM 41.8837 -87.7271 91° East 239 275 5,900 -1,140 Descending FlightAware ADS-B (KORD)
09:50AM 41.8840 -87.7047 89° East 236 272 5,600 -1,020 Descending FlightAware ADS-B (KORD)
09:50AM 41.8842 -87.6809 89° East 238 274 5,400 -600 Descending FlightAware ADS-B (KORD)
09:51AM 41.8844 -87.6607 89° East 238 274 5,300 -600 Descending FlightAware ADS-B (KMDW)
09:51AM 41.8851 -87.6525 83° East 238 274 5,200 -420 Descending FlightAware ADS-B (KORD)
09:51AM 41.8843 -87.6785 267° West 239 275 5,200 -240 Level FlightAware ADS-B (KPWK)
09:51AM 41.8843 -87.6785 267° West 229 264 5,100 -360 Descending FlightAware ADS-B (KPWK)
09:51AM 41.9188 -87.6205 51° Northeast 222 255 5,000 -480 Descending FlightAware ADS-B (KORD)
09:52AM 41.9454 -87.6218 358° North 212 244 4,800 -480 Descending FlightAware ADS-B (KORD)
09:52AM 41.9509 -87.6248 338° Northwest 208 239 4,800 -720 Level FlightAware ADS-B (KMDW)
09:52AM 41.9563 -87.6296 327° Northwest 192 221 4,600 -600 Descending FlightAware ADS-B (KORD)
09:52AM 41.9632 -87.6407 310° West 189 217 4,600 -720 Level FlightAware ADS-B (KMDW)
09:52AM 41.9662 -87.6520 289° West 183 211 4,400 -960 Descending FlightAware ADS-B (KORD)
09:53AM 41.9667 -87.6641 273° West 178 205 4,300 -1,440 Descending FlightAware ADS-B (KMDW)
09:53AM 41.9657 -87.6862 267° West 174 200 3,700 -1,320 Descending FlightAware ADS-B (KMDW)
09:53AM 41.9659 -87.7077 271° West 167 192 3,400 -960 Descending FlightAware ADS-B (KMDW)
09:54AM 41.9658 -87.7265 270° West 167 192 3,100 -1,080 Descending FlightAware ADS-B (KMDW)
09:54AM 41.9658 -87.7448 270° West 169 194 2,700 -1,080 Descending FlightAware ADS-B (KMDW)
09:54AM 41.9658 -87.7630 270° West 167 192 2,400 -900 Descending FlightAware ADS-B (KORD)
09:55AM 41.9658 -87.7891 270° West 151 174 2,100 -900 Descending FlightAware ADS-B (KMDW)
09:55AM 41.9658 -87.8065 270° West 144 166 1,800 -900 Descending FlightAware ADS-B (KMDW)
09:55AM 41.9659 -87.8235 270° West 140 161 1,500 -840 Descending FlightAware ADS-B (KMDW)
09:56AM 41.9659 -87.8273 270° West 143 165 1,300 -780 Descending FlightAware ADS-B (KORD)
09:56AM 41.9658 -87.8599 270° West 144 166 1,000 -840 Descending FlightAware ADS-B (KMDW)
09:56AM 41.9658 -87.8772 270° West 142 163 700 -660 Descending FlightAware ADS-B (KMDW)
09:57AM 41.9658 -87.9076 270° West 105 121 400 -540 Descending FlightAware ADS-B (KMDW)